createdAt,value
2019-05-30T00:01:10.328Z,70.00
2019-05-30T00:06:26.376Z,70.20
2019-05-30T00:11:30.919Z,70.60
2019-05-30T00:16:39.177Z,70.70
2019-05-30T00:21:54.796Z,70.60
2019-05-30T00:27:33.039Z,70.60
2019-05-30T00:32:09.259Z,70.90
2019-05-30T00:37:23.022Z,71.10
2019-05-30T00:42:26.644Z,71.30
2019-05-30T00:47:35.328Z,71.40
2019-05-30T00:52:49.805Z,71.60
2019-05-30T00:58:02.802Z,71.60
2019-05-30T01:03:11.553Z,72.10
2019-05-30T01:08:18.018Z,72.10
2019-05-30T01:13:26.850Z,72.60
2019-05-30T01:18:40.256Z,72.70
2019-05-30T01:23:54.643Z,72.90
2019-05-30T01:29:01.459Z,73.00
2019-05-30T01:34:20.821Z,73.20
2019-05-30T01:39:33.510Z,73.50
2019-05-30T01:44:44.261Z,73.80
2019-05-30T01:50:15.848Z,74.10
2019-05-30T01:55:02.757Z,74.40
2019-05-30T02:00:20.727Z,74.80
2019-05-30T02:05:20.754Z,75.70
2019-05-30T02:10:27.395Z,76.10
2019-05-30T02:15:42.648Z,76.80
2019-05-30T02:20:52.501Z,77.70
2019-05-30T02:26:00.119Z,79.50
2019-05-30T02:31:09.683Z,82.10
2019-05-30T02:36:17.771Z,83.40
2019-05-30T02:41:26.326Z,84.80
2019-05-30T02:46:33.172Z,85.90
2019-05-30T02:51:45.048Z,87.20
2019-05-30T02:56:49.979Z,88.50
2019-05-30T03:02:02.876Z,88.50
2019-05-30T03:07:08.591Z,90.10
2019-05-30T03:12:15.042Z,91.00
2019-05-30T03:17:25.489Z,91.50
2019-05-30T03:22:49.913Z,91.90
2019-05-30T03:27:47.636Z,92.00
2019-05-30T03:33:07.778Z,92.30
2019-05-30T03:38:08.790Z,92.50
2019-05-30T03:43:17.004Z,92.60
2019-05-30T03:50:06.858Z,92.70
2019-05-30T03:53:40.294Z,92.80
2019-05-30T03:59:37.586Z,93.20
2019-05-30T04:04:51.284Z,93.40
2019-05-30T04:10:00.933Z,93.40
2019-05-30T04:15:12.594Z,93.50
2019-05-30T04:20:22.480Z,93.60
2019-05-30T04:25:25.838Z,93.60
2019-05-30T04:30:30.680Z,93.60
2019-05-30T04:35:38.494Z,93.70
2019-05-30T04:40:45.148Z,93.80
2019-05-30T04:46:01.534Z,93.90
2019-05-30T04:51:03.948Z,93.90
2019-05-30T04:56:10.376Z,93.80
2019-05-30T05:01:22.122Z,93.70
2019-05-30T05:06:35.628Z,93.70
2019-05-30T05:17:17.106Z,93.70
2019-05-30T05:22:21.580Z,93.70
2019-05-30T05:27:25.982Z,93.90
2019-05-30T05:32:30.395Z,93.90
2019-05-30T05:37:34.785Z,93.90
2019-05-30T05:42:39.335Z,94.00
2019-05-30T05:47:43.724Z,94.00
2019-05-30T05:52:48.109Z,94.10
2019-05-30T05:57:52.591Z,94.10
2019-05-30T06:02:57.049Z,94.10
2019-05-30T06:08:01.501Z,94.00
2019-05-30T06:13:06.094Z,94.10
2019-05-30T06:18:10.469Z,94.10
2019-05-30T06:23:15.153Z,94.00
2019-05-30T06:28:19.956Z,93.90
2019-05-30T06:33:24.999Z,93.90
2019-05-30T06:38:29.573Z,93.90
2019-05-30T06:43:33.979Z,93.90
2019-05-30T06:48:38.438Z,93.80
2019-05-30T06:53:42.919Z,94.00
2019-05-30T06:58:48.955Z,93.80
2019-05-30T07:03:58.898Z,93.70
2019-05-30T07:09:03.651Z,93.50
2019-05-30T07:14:08.213Z,93.40
2019-05-30T07:19:12.682Z,93.30
2019-05-30T07:24:17.098Z,93.20
2019-05-30T07:29:21.567Z,93.10
2019-05-30T07:34:26.091Z,93.10
2019-05-30T07:39:33.727Z,93.00
2019-05-30T07:44:37.047Z,93.50
2019-05-30T07:49:42.177Z,93.00
2019-05-30T07:54:46.702Z,92.90
2019-05-30T07:59:51.234Z,92.80
2019-05-30T08:04:55.715Z,92.80
2019-05-30T08:10:00.265Z,92.80
2019-05-30T08:15:07.296Z,92.80
2019-05-30T08:20:12.403Z,93.00
2019-05-30T08:25:16.966Z,93.00
2019-05-30T08:30:23.190Z,93.00
2019-05-30T08:35:39.105Z,93.50
2019-05-30T08:40:33.832Z,93.30
2019-05-30T08:45:38.214Z,93.40
2019-05-30T08:50:44.798Z,93.50
2019-05-30T08:55:49.375Z,93.60
2019-05-30T09:00:53.820Z,93.50
2019-05-30T09:06:03.768Z,93.60
2019-05-30T09:11:04.319Z,93.60
2019-05-30T09:16:08.697Z,93.40
2019-05-30T09:21:13.334Z,93.50
2019-05-30T09:26:22.682Z,93.30
2019-05-30T09:31:27.149Z,93.30
2019-05-30T09:36:31.543Z,93.30
2019-05-30T09:41:35.942Z,93.40
2019-05-30T09:46:42.442Z,93.30
2019-05-30T09:51:47.227Z,93.10
2019-05-30T09:56:56.561Z,92.90
2019-05-30T10:01:59.560Z,93.00
2019-05-30T10:07:03.954Z,93.00
2019-05-30T10:12:10.013Z,93.00
2019-05-30T10:17:14.435Z,93.00
2019-05-30T10:22:18.912Z,92.90
2019-05-30T10:27:23.389Z,92.90
2019-05-30T10:32:27.791Z,92.80
2019-05-30T10:37:32.174Z,92.60
2019-05-30T10:42:36.594Z,92.50
2019-05-30T10:47:41.138Z,92.40
2019-05-30T10:52:45.553Z,92.10
2019-05-30T10:57:50.142Z,92.00
2019-05-30T11:02:54.979Z,91.50
2019-05-30T11:08:12.833Z,91.20
2019-05-30T11:13:17.852Z,90.90
2019-05-30T11:18:22.243Z,90.40
2019-05-30T11:23:26.636Z,90.20
2019-05-30T11:28:31.017Z,89.60
2019-05-30T11:33:35.486Z,88.90
2019-05-30T11:38:39.879Z,89.10
2019-05-30T11:43:44.291Z,88.90
2019-05-30T11:48:49.521Z,88.30
2019-05-30T11:53:54.068Z,87.50
2019-05-30T11:58:58.490Z,87.10
2019-05-30T12:04:02.928Z,86.00
2019-05-30T12:09:08.874Z,85.50
2019-05-30T12:14:13.315Z,84.50
2019-05-30T12:19:17.896Z,83.10
2019-05-30T12:24:22.346Z,83.60
2019-05-30T12:29:26.765Z,83.00
2019-05-30T12:34:31.190Z,78.00
2019-05-30T12:39:35.666Z,75.00
2019-05-30T12:44:40.146Z,74.70
2019-05-30T12:49:44.504Z,71.60
2019-05-30T12:54:48.904Z,68.00
2019-05-30T12:59:54.629Z,66.50
2019-05-30T13:04:59.153Z,67.20
2019-05-30T13:10:05.401Z,67.60
2019-05-30T13:15:10.400Z,65.80
2019-05-30T13:20:15.493Z,64.20
2019-05-30T13:25:20.379Z,62.30
2019-05-30T13:30:25.626Z,62.10
2019-05-30T13:35:30.017Z,60.90
2019-05-30T13:40:34.381Z,58.90
2019-05-30T13:45:38.828Z,58.70
2019-05-30T13:50:43.939Z,57.70
2019-05-30T13:55:50.250Z,58.10
2019-05-30T14:00:54.636Z,57.50
2019-05-30T14:05:59.950Z,57.40
2019-05-30T14:11:04.644Z,57.20
2019-05-30T14:16:09.135Z,57.90
2019-05-30T14:21:13.474Z,58.20
2019-05-30T14:26:18.014Z,57.20
2019-05-30T14:31:22.403Z,56.90
2019-05-30T14:36:26.807Z,56.40
2019-05-30T14:41:31.259Z,56.50
2019-05-30T14:46:35.670Z,55.20
2019-05-30T14:51:42.882Z,54.80
2019-05-30T14:56:47.452Z,54.10
2019-05-30T15:01:51.942Z,54.60
2019-05-30T15:06:56.346Z,54.70
2019-05-30T15:12:00.921Z,54.40
2019-05-30T15:17:05.931Z,55.50
2019-05-30T15:22:16.389Z,56.20
2019-05-30T15:27:20.688Z,57.30
2019-05-30T15:32:24.508Z,58.20
2019-05-30T15:37:28.913Z,58.80
2019-05-30T15:42:33.346Z,59.00
2019-05-30T15:47:37.984Z,59.50
2019-05-30T15:52:42.867Z,60.10
2019-05-30T15:57:48.884Z,60.60
2019-05-30T16:02:53.294Z,60.40
2019-05-30T16:07:57.758Z,60.50
2019-05-30T16:13:02.187Z,59.50
2019-05-30T16:18:06.662Z,60.40
2019-05-30T16:23:12.479Z,59.90
2019-05-30T16:28:17.849Z,59.90
2019-05-30T16:33:41.740Z,60.20
2019-05-30T16:38:46.124Z,60.70
2019-05-30T16:43:50.501Z,61.20
2019-05-30T16:48:54.920Z,61.50
2019-05-30T16:53:59.334Z,61.70
2019-05-30T16:59:03.781Z,62.40
2019-05-30T17:04:08.192Z,62.10
2019-05-30T17:09:15.165Z,61.80
2019-05-30T17:14:19.791Z,61.90
2019-05-30T17:19:24.544Z,61.60
2019-05-30T17:24:29.120Z,61.20
2019-05-30T17:29:33.525Z,61.50
2019-05-30T17:34:38.005Z,61.80
2019-05-30T17:39:42.518Z,61.50
2019-05-30T17:44:47.226Z,61.10
2019-05-30T17:49:51.596Z,61.40
2019-05-30T17:54:56.049Z,61.30
2019-05-30T18:00:00.642Z,61.50
2019-05-30T18:05:11.513Z,61.50
2019-05-30T18:10:17.183Z,62.00
2019-05-30T18:15:26.225Z,62.30
2019-05-30T18:20:29.491Z,62.50
2019-05-30T18:25:33.966Z,62.80
2019-05-30T18:30:43.833Z,63.20
2019-05-30T18:35:48.256Z,63.20
2019-05-30T18:40:52.655Z,63.80
2019-05-30T18:45:57.279Z,63.70
2019-05-30T18:51:01.754Z,64.10
2019-05-30T18:56:06.298Z,64.20
2019-05-30T19:01:10.735Z,64.30
2019-05-30T19:06:15.173Z,64.40
2019-05-30T19:11:28.220Z,64.50
2019-05-30T19:16:26.338Z,64.60
2019-05-30T19:21:32.161Z,65.10
2019-05-30T19:26:38.281Z,65.40
2019-05-30T19:31:42.757Z,65.60
2019-05-30T19:36:47.129Z,65.60
2019-05-30T19:41:57.031Z,65.70
2019-05-30T19:46:57.678Z,65.90
2019-05-30T19:52:02.191Z,65.70
2019-05-30T19:57:06.950Z,65.50
2019-05-30T20:02:17.794Z,65.60
2019-05-30T20:12:38.928Z,66.00
2019-05-30T20:17:51.148Z,66.10
2019-05-30T20:23:04.643Z,66.20
2019-05-30T20:28:14.600Z,66.40
2019-05-30T20:33:25.775Z,66.20
2019-05-30T20:38:34.561Z,67.00
2019-05-30T20:43:47.321Z,67.20
2019-05-30T20:48:51.173Z,67.30
2019-05-30T20:54:00.879Z,67.40
2019-05-30T21:04:31.472Z,66.80
2019-05-30T21:09:46.230Z,66.70
2019-05-30T21:15:01.322Z,66.70
2019-05-30T21:20:03.309Z,66.80
2019-05-30T21:25:11.008Z,66.60
2019-05-30T21:30:20.237Z,66.50
2019-05-30T21:35:25.176Z,66.50
2019-05-30T21:40:36.180Z,66.20
2019-05-30T21:45:41.000Z,66.00
2019-05-30T21:50:50.248Z,65.90
2019-05-30T21:56:08.012Z,65.90
2019-05-30T22:01:27.589Z,65.70
2019-05-30T22:06:36.343Z,65.70
2019-05-30T22:11:41.622Z,65.80
2019-05-30T22:16:50.194Z,66.00
2019-05-30T22:22:03.328Z,66.20
2019-05-30T22:27:09.660Z,66.30
2019-05-30T22:32:21.178Z,66.50
2019-05-30T22:37:28.768Z,66.70
2019-05-30T22:42:36.440Z,66.80
2019-05-30T22:47:41.325Z,67.00
2019-05-30T22:52:51.009Z,67.00
2019-05-30T22:57:56.802Z,67.20
2019-05-30T23:03:02.930Z,67.30
2019-05-30T23:08:13.249Z,67.50
2019-05-30T23:13:20.803Z,67.70
2019-05-30T23:18:27.130Z,67.80
2019-05-30T23:23:38.515Z,68.10
2019-05-30T23:28:47.489Z,68.30
2019-05-30T23:33:54.469Z,68.40
2019-05-30T23:38:59.214Z,68.70
2019-05-30T23:44:11.405Z,68.70
2019-05-30T23:49:17.617Z,68.90
